Time;durP1;ratioP1;P1;durP2;ratioP2;P2;SDS_P1;SDS_P2;PMS_P1;PMS_P2;Temp;Humidity;BMP_temperature;BMP_pressure;BME280_temperature;BME280_humidity;BME280_pressure;Samples;Min_cycle;Max_cycle;Signal;HPM_P1;HPM_P2
2023/08/25 00:00:39;;;;;;;112.17;89.43;;;20.20;99.90;;;;;;5040989;28;20184;-84
2023/08/25 00:03:05;;;;;;;102.47;77.07;;;20.30;99.90;;;;;;5022407;28;20421;-84
2023/08/25 00:05:37;;;;;;;103.57;82.53;;;20.30;99.90;;;;;;5022469;28;21027;-84
2023/08/25 00:08:02;;;;;;;103.73;84.07;;;20.20;99.90;;;;;;5040483;28;20518;-84
2023/08/25 00:10:28;;;;;;;103.80;83.60;;;20.20;99.90;;;;;;5022139;28;20863;-84
2023/08/25 00:12:54;;;;;;;101.77;72.30;;;20.20;99.90;;;;;;5040465;28;20835;-84
2023/08/25 00:15:20;;;;;;;101.97;84.57;;;20.20;99.90;;;;;;5022368;28;20271;-84
2023/08/25 00:17:46;;;;;;;99.30;81.80;;;20.10;99.90;;;;;;5040157;28;20168;-84
2023/08/25 00:20:12;;;;;;;106.37;94.47;;;20.10;99.90;;;;;;5040408;28;20222;-84
2023/08/25 00:22:41;;;;;;;108.73;96.97;;;20.00;99.90;;;;;;5040258;28;20402;-84
2023/08/25 00:25:08;;;;;;;104.60;93.17;;;20.00;99.90;;;;;;5040222;28;20166;-84
2023/08/25 00:27:33;;;;;;;117.53;105.73;;;19.90;99.90;;;;;;5022098;28;20826;-84
2023/08/25 00:29:59;;;;;;;104.90;93.47;;;19.90;99.90;;;;;;5039525;28;20428;-84
2023/08/25 00:32:25;;;;;;;107.40;96.00;;;19.90;99.90;;;;;;5022578;28;20717;-84
2023/08/25 00:34:51;;;;;;;114.43;100.60;;;19.90;99.90;;;;;;5040947;28;20419;-84
2023/08/25 00:37:16;;;;;;;105.87;94.53;;;19.80;99.90;;;;;;5039351;28;20166;-84
2023/08/25 00:39:42;;;;;;;106.90;93.17;;;19.80;99.90;;;;;;5039987;28;20234;-84
2023/08/25 00:42:08;;;;;;;113.37;101.40;;;19.80;99.90;;;;;;5039771;28;20170;-84
2023/08/25 00:44:34;;;;;;;104.20;88.87;;;19.80;99.90;;;;;;5039235;28;20629;-84
2023/08/25 00:47:00;;;;;;;107.83;96.30;;;19.70;99.90;;;;;;5038891;28;20159;-84
2023/08/25 00:49:26;;;;;;;103.63;87.07;;;19.70;99.90;;;;;;5021564;28;20543;-84
2023/08/25 00:51:53;;;;;;;114.73;102.97;;;19.60;99.90;;;;;;5040281;28;20704;-84
2023/08/25 00:54:21;;;;;;;106.33;89.20;;;19.70;99.90;;;;;;5021674;28;20768;-84
2023/08/25 00:56:49;;;;;;;107.70;96.23;;;19.70;99.90;;;;;;5039627;28;20411;-84
2023/08/25 00:59:16;;;;;;;106.83;95.27;;;19.70;99.90;;;;;;5021398;28;20429;-84
2023/08/25 01:01:45;;;;;;;118.67;106.47;;;19.60;99.90;;;;;;5039069;28;20410;-84
2023/08/25 01:04:12;;;;;;;120.03;107.83;;;19.70;99.90;;;;;;5039044;28;20407;-84
2023/08/25 01:06:38;;;;;;;113.93;101.97;;;19.60;99.90;;;;;;5039405;28;20404;-84
2023/08/25 01:09:05;;;;;;;105.57;87.50;;;19.70;99.90;;;;;;5039014;28;20444;-84
2023/08/25 01:11:44;;;;;;;107.40;95.87;;;19.70;99.90;;;;;;5020866;28;20433;-84
2023/08/25 01:14:16;;;;;;;103.30;91.93;;;19.70;99.90;;;;;;5021084;28;20437;-84
2023/08/25 01:17:02;;;;;;;100.33;76.50;;;19.70;99.90;;;;;;5038563;28;20512;-84
2023/08/25 01:20:06;;;;;;;101.97;87.00;;;19.80;99.90;;;;;;5038511;28;20435;-84
2023/08/25 01:23:09;;;;;;;106.37;86.20;;;19.80;99.90;;;;;;5036105;28;20424;-83
2023/08/25 01:25:35;;;;;;;107.60;89.77;;;19.80;99.90;;;;;;5020535;28;20451;-84
2023/08/25 01:28:03;;;;;;;101.33;75.23;;;19.80;99.90;;;;;;5038699;28;20449;-84
2023/08/25 01:30:31;;;;;;;97.70;67.83;;;19.80;99.90;;;;;;5038539;28;20474;-84
2023/08/25 01:33:00;;;;;;;94.40;68.90;;;19.90;99.90;;;;;;5038489;28;20454;-84
2023/08/25 01:36:03;;;;;;;93.80;66.93;;;19.80;99.90;;;;;;5038903;28;20737;-84
2023/08/25 01:38:49;;;;;;;95.00;70.63;;;19.80;99.90;;;;;;5038329;28;20406;-84
2023/08/25 01:41:22;;;;;;;95.40;76.23;;;19.80;99.90;;;;;;5038351;28;20416;-84
2023/08/25 01:43:51;;;;;;;95.20;67.77;;;19.90;99.90;;;;;;5038143;28;20379;-84
2023/08/25 01:46:18;;;;;;;93.87;69.77;;;19.80;99.90;;;;;;5038714;28;20396;-84
2023/08/25 01:48:47;;;;;;;94.67;72.77;;;19.80;99.90;;;;;;5037816;28;20812;-84
2023/08/25 01:51:13;;;;;;;94.87;73.33;;;19.80;99.90;;;;;;5020475;28;20435;-84
2023/08/25 01:53:42;;;;;;;91.47;61.47;;;19.80;99.90;;;;;;5038684;28;20402;-84
2023/08/25 01:56:07;;;;;;;94.93;66.60;;;19.70;99.90;;;;;;5038734;28;20402;-84
2023/08/25 01:58:33;;;;;;;99.07;82.63;;;19.60;99.90;;;;;;5020509;28;20427;-84
2023/08/25 02:00:58;;;;;;;104.70;79.83;;;19.50;99.90;;;;;;5038402;28;20199;-84
2023/08/25 02:03:27;;;;;;;104.07;90.13;;;19.50;99.90;;;;;;5038080;28;20165;-84
2023/08/25 02:05:53;;;;;;;100.70;83.83;;;19.60;99.90;;;;;;5038407;28;20171;-84
2023/08/25 02:08:18;;;;;;;104.13;82.97;;;19.60;99.90;;;;;;5037970;28;20812;-84
2023/08/25 02:10:44;;;;;;;99.63;83.87;;;19.70;99.90;;;;;;5037656;28;20664;-85
2023/08/25 02:13:10;;;;;;;104.40;81.17;;;19.70;99.90;;;;;;5038984;28;20164;-84
2023/08/25 02:15:35;;;;;;;100.17;69.57;;;19.70;99.90;;;;;;5038317;28;20673;-84
2023/08/25 02:18:01;;;;;;;100.10;72.87;;;19.70;99.90;;;;;;5037832;28;20175;-85
2023/08/25 02:20:27;;;;;;;104.63;82.03;;;19.70;99.90;;;;;;5037907;28;20187;-84
2023/08/25 02:22:52;;;;;;;95.47;71.43;;;19.70;99.90;;;;;;5020433;28;20196;-85
2023/08/25 02:25:18;;;;;;;95.60;63.53;;;19.70;99.90;;;;;;5038623;28;20695;-85
2023/08/25 02:27:44;;;;;;;96.67;69.17;;;19.70;99.90;;;;;;5038162;28;20240;-84
2023/08/25 02:30:10;;;;;;;110.70;77.67;;;19.60;99.90;;;;;;5037646;28;20256;-84
2023/08/25 02:32:36;;;;;;;105.13;80.30;;;19.60;99.90;;;;;;5038476;28;20161;-84
2023/08/25 02:35:01;;;;;;;106.83;84.17;;;19.60;99.90;;;;;;5038907;28;20412;-85
2023/08/25 02:37:27;;;;;;;96.93;79.30;;;19.60;99.90;;;;;;5037927;28;20157;-84
2023/08/25 02:39:53;;;;;;;105.00;77.60;;;19.60;99.90;;;;;;5037929;28;20213;-85
2023/08/25 02:42:18;;;;;;;95.33;66.10;;;19.70;99.90;;;;;;5038075;28;20192;-84
2023/08/25 02:44:44;;;;;;;92.53;67.53;;;19.70;99.90;;;;;;5037959;28;20193;-84
2023/08/25 02:47:10;;;;;;;99.20;72.37;;;19.60;99.90;;;;;;5037920;28;20529;-84
2023/08/25 02:49:38;;;;;;;94.00;70.53;;;19.60;99.90;;;;;;5037985;28;20277;-84
2023/08/25 02:52:05;;;;;;;99.67;68.87;;;19.50;99.90;;;;;;5019385;28;20178;-84
2023/08/25 02:54:31;;;;;;;97.60;82.53;;;19.50;99.90;;;;;;5037078;28;20481;-85
2023/08/25 02:56:57;;;;;;;100.50;73.10;;;19.50;99.90;;;;;;5037327;28;20860;-84
2023/08/25 02:59:22;;;;;;;101.63;79.20;;;19.40;99.90;;;;;;5037148;28;20194;-84
2023/08/25 03:01:48;;;;;;;107.47;84.40;;;19.50;99.90;;;;;;5037168;28;20490;-84
2023/08/25 03:04:14;;;;;;;98.23;68.27;;;19.50;99.90;;;;;;5037475;28;20161;-84
2023/08/25 03:06:40;;;;;;;101.40;80.30;;;19.40;99.90;;;;;;5019454;28;20180;-84
2023/08/25 03:09:06;;;;;;;96.90;67.37;;;19.50;99.90;;;;;;5019111;28;20218;-84
2023/08/25 03:11:32;;;;;;;96.23;71.17;;;19.40;99.90;;;;;;5036871;28;20158;-84
2023/08/25 03:13:58;;;;;;;99.87;81.00;;;19.40;99.90;;;;;;5037334;28;20406;-84
2023/08/25 03:16:23;;;;;;;97.77;74.73;;;19.40;99.90;;;;;;5037074;28;20212;-84
2023/08/25 03:18:49;;;;;;;105.73;81.30;;;19.40;99.90;;;;;;5019453;28;20169;-85
2023/08/25 03:21:15;;;;;;;99.90;66.20;;;19.40;99.90;;;;;;5037375;28;20244;-85
2023/08/25 03:23:41;;;;;;;96.23;74.17;;;19.40;99.90;;;;;;5039710;28;20176;-84
2023/08/25 03:26:06;;;;;;;101.10;66.67;;;19.40;99.90;;;;;;5040957;28;20173;-84
2023/08/25 03:28:32;;;;;;;96.97;69.47;;;19.40;99.90;;;;;;5041061;28;20450;-84
2023/08/25 03:30:58;;;;;;;102.37;78.97;;;19.40;99.90;;;;;;5023395;28;20189;-84
2023/08/25 03:33:23;;;;;;;98.67;78.13;;;19.40;99.90;;;;;;5023778;28;20166;-85
2023/08/25 03:35:49;;;;;;;100.73;74.20;;;19.40;99.90;;;;;;5041115;28;20244;-85
2023/08/25 03:38:15;;;;;;;104.33;83.67;;;19.40;99.90;;;;;;5040546;28;20161;-84
2023/08/25 03:40:40;;;;;;;95.67;62.10;;;19.40;99.90;;;;;;5022814;28;20197;-85
2023/08/25 03:43:06;;;;;;;107.50;91.03;;;19.40;99.90;;;;;;5040774;28;20193;-84
2023/08/25 03:45:32;;;;;;;94.93;67.93;;;19.40;99.90;;;;;;5040957;28;20518;-84
2023/08/25 03:47:57;;;;;;;103.43;80.57;;;19.40;99.90;;;;;;5022442;28;20201;-84
2023/08/25 03:50:24;;;;;;;102.93;85.57;;;19.40;99.90;;;;;;5040850;28;20196;-85
2023/08/25 03:52:52;;;;;;;96.93;71.67;;;19.40;99.90;;;;;;5041170;28;20648;-85
2023/08/25 03:55:17;;;;;;;107.93;89.53;;;19.40;99.90;;;;;;5040837;28;20915;-85
2023/08/25 03:57:46;;;;;;;107.40;88.57;;;19.40;99.90;;;;;;5022851;28;20420;-85
2023/08/25 04:00:12;;;;;;;96.10;74.50;;;19.50;99.90;;;;;;5040997;28;20218;-84
2023/08/25 04:02:39;;;;;;;104.10;84.70;;;19.40;99.90;;;;;;5040434;28;20754;-84
2023/08/25 04:05:06;;;;;;;110.13;79.10;;;19.40;99.90;;;;;;5040731;28;20408;-85
2023/08/25 04:07:31;;;;;;;100.13;80.53;;;19.30;99.90;;;;;;5040691;28;20409;-85
2023/08/25 04:09:57;;;;;;;107.87;95.30;;;19.30;99.90;;;;;;5040395;28;20424;-85
2023/08/25 04:12:23;;;;;;;117.73;105.20;;;19.20;99.90;;;;;;5041988;28;20537;-85
2023/08/25 04:14:48;;;;;;;116.00;103.73;;;19.20;99.90;;;;;;5024463;28;20185;-84
2023/08/25 04:17:14;;;;;;;123.83;111.13;;;19.30;99.90;;;;;;5041746;28;20158;-85
2023/08/25 04:19:39;;;;;;;102.13;86.70;;;19.30;99.90;;;;;;5042719;28;20181;-85
2023/08/25 04:22:09;;;;;;;102.30;91.10;;;19.30;99.90;;;;;;5042162;28;20166;-84
2023/08/25 04:24:34;;;;;;;112.60;100.57;;;19.30;99.90;;;;;;5041663;28;20165;-85
2023/08/25 04:27:00;;;;;;;119.57;105.10;;;19.40;99.90;;;;;;5041964;28;20415;-85
2023/08/25 04:29:26;;;;;;;117.60;105.70;;;19.40;99.90;;;;;;5024116;28;20202;-85
2023/08/25 04:31:52;;;;;;;120.87;107.90;;;19.40;99.90;;;;;;5022985;28;20169;-84
2023/08/25 04:34:17;;;;;;;108.47;96.77;;;19.40;99.90;;;;;;5040402;28;20707;-84
2023/08/25 04:36:45;;;;;;;122.83;110.53;;;19.40;99.90;;;;;;5041338;28;20895;-84
2023/08/25 04:39:11;;;;;;;131.57;118.80;;;19.30;99.90;;;;;;5038604;28;20640;-84
2023/08/25 04:41:36;;;;;;;136.77;124.20;;;19.30;99.90;;;;;;5018857;28;20416;-84
2023/08/25 04:44:02;;;;;;;150.77;137.43;;;19.30;99.90;;;;;;5018822;28;20183;-84
2023/08/25 04:46:29;;;;;;;165.73;151.83;;;19.30;99.90;;;;;;5036701;28;20165;-84
2023/08/25 04:48:55;;;;;;;145.47;132.27;;;19.30;99.90;;;;;;5036823;28;20252;-84
2023/08/25 04:51:21;;;;;;;136.80;123.20;;;19.30;99.90;;;;;;5036730;28;20480;-84
2023/08/25 04:53:46;;;;;;;159.70;146.00;;;19.30;99.90;;;;;;5036610;28;20460;-84
2023/08/25 04:56:12;;;;;;;150.73;137.37;;;19.30;99.90;;;;;;5036910;28;20407;-84
2023/08/25 04:58:37;;;;;;;149.10;135.63;;;19.30;99.90;;;;;;5036830;28;20166;-84
2023/08/25 05:01:04;;;;;;;146.87;133.67;;;19.30;99.90;;;;;;5038919;28;20292;-85
2023/08/25 05:03:29;;;;;;;135.20;122.00;;;19.40;99.90;;;;;;5039632;28;20162;-85
2023/08/25 05:05:55;;;;;;;140.00;126.67;;;19.30;99.90;;;;;;5039345;28;20994;-85
2023/08/25 05:08:20;;;;;;;138.17;125.17;;;19.30;99.90;;;;;;5039131;28;20255;-85
2023/08/25 05:10:46;;;;;;;131.47;118.33;;;19.30;99.90;;;;;;5038815;28;20547;-85
2023/08/25 05:13:12;;;;;;;130.67;117.57;;;19.40;99.90;;;;;;5039077;28;20528;-85
2023/08/25 05:15:37;;;;;;;132.80;120.20;;;19.40;99.90;;;;;;5039056;28;20234;-85
2023/08/25 05:18:03;;;;;;;112.57;98.00;;;19.40;99.90;;;;;;5020897;28;20559;-85
2023/08/25 05:20:29;;;;;;;148.37;134.87;;;19.50;99.90;;;;;;5038995;28;20182;-85
2023/08/25 05:22:54;;;;;;;126.47;113.23;;;19.50;99.90;;;;;;5022070;28;20169;-85
2023/08/25 05:25:20;;;;;;;132.67;119.83;;;19.50;99.90;;;;;;5039551;28;20170;-85
2023/08/25 05:27:46;;;;;;;137.50;124.80;;;19.50;99.90;;;;;;5021555;28;20200;-85
2023/08/25 05:30:13;;;;;;;132.23;119.47;;;19.60;99.90;;;;;;5038864;28;20185;-85
2023/08/25 05:32:38;;;;;;;131.53;119.00;;;19.60;99.90;;;;;;5021893;28;20485;-85
2023/08/25 05:35:04;;;;;;;128.33;115.77;;;19.60;99.90;;;;;;5039126;28;20429;-85
2023/08/25 05:37:30;;;;;;;145.43;132.17;;;19.60;99.90;;;;;;5039998;28;20163;-85
2023/08/25 05:39:56;;;;;;;121.57;109.27;;;19.70;99.90;;;;;;5039179;28;21001;-84
2023/08/25 05:42:25;;;;;;;109.07;94.43;;;19.60;99.90;;;;;;5038336;28;20518;-84
2023/08/25 05:44:50;;;;;;;113.03;99.80;;;19.50;99.90;;;;;;5019876;28;20170;-84
2023/08/25 05:47:16;;;;;;;122.33;109.43;;;19.60;99.90;;;;;;5038176;28;20393;-85
2023/08/25 05:49:42;;;;;;;114.97;102.33;;;19.60;99.90;;;;;;5020207;28;20213;-84
2023/08/25 05:52:07;;;;;;;121.10;108.97;;;19.60;99.90;;;;;;5038663;28;20165;-85
2023/08/25 05:54:33;;;;;;;103.47;91.50;;;19.70;99.90;;;;;;5037775;28;20691;-85
2023/08/25 05:56:59;;;;;;;109.80;92.30;;;19.60;99.90;;;;;;5038310;28;20155;-84
2023/08/25 05:59:24;;;;;;;112.33;96.97;;;19.70;99.90;;;;;;5037383;28;20265;-85
2023/08/25 06:01:50;;;;;;;112.53;100.80;;;19.80;99.90;;;;;;5035740;28;20165;-85
2023/08/25 06:04:16;;;;;;;113.83;101.80;;;19.90;99.90;;;;;;5035660;28;20163;-85
2023/08/25 06:06:43;;;;;;;116.63;104.80;;;19.90;99.90;;;;;;5035053;28;20220;-84
2023/08/25 06:09:09;;;;;;;110.40;98.17;;;19.90;99.90;;;;;;5035195;28;20818;-83
2023/08/25 06:11:35;;;;;;;112.63;101.00;;;19.90;99.90;;;;;;5035562;28;20432;-85
2023/08/25 06:14:01;;;;;;;103.47;88.13;;;20.00;99.90;;;;;;5035128;28;20156;-84
2023/08/25 06:16:27;;;;;;;110.97;98.37;;;20.10;99.90;;;;;;5017115;28;20491;-85
2023/08/25 06:18:52;;;;;;;103.07;91.33;;;20.10;99.90;;;;;;5035295;28;20915;-84
2023/08/25 06:21:18;;;;;;;102.07;87.30;;;20.20;99.90;;;;;;5034973;28;20525;-84
2023/08/25 06:23:44;;;;;;;104.60;90.80;;;20.20;99.90;;;;;;5035014;28;20341;-84
2023/08/25 06:26:09;;;;;;;101.43;82.67;;;20.30;99.90;;;;;;5035651;28;20169;-85
2023/08/25 06:28:35;;;;;;;101.83;85.77;;;20.20;99.90;;;;;;5035508;28;20249;-85
2023/08/25 06:31:01;;;;;;;102.00;85.33;;;20.30;99.90;;;;;;5035070;28;20194;-85
2023/08/25 06:33:29;;;;;;;96.03;74.60;;;20.20;99.90;;;;;;5017056;28;20194;-84
2023/08/25 06:35:56;;;;;;;99.73;81.63;;;20.20;99.90;;;;;;5035147;28;20769;-84
2023/08/25 06:38:23;;;;;;;101.20;82.73;;;20.20;99.90;;;;;;5035520;28;20397;-84
2023/08/25 06:40:50;;;;;;;99.00;80.50;;;20.30;99.90;;;;;;5034563;28;20504;-84
2023/08/25 06:43:16;;;;;;;102.33;80.20;;;20.20;99.90;;;;;;5016968;28;20414;-85
2023/08/25 06:45:42;;;;;;;108.27;90.60;;;20.30;99.90;;;;;;5034868;28;20407;-83
2023/08/25 06:48:07;;;;;;;102.53;89.37;;;20.40;99.90;;;;;;5034785;28;20187;-84
2023/08/25 06:50:33;;;;;;;108.00;81.00;;;20.50;99.90;;;;;;5036585;28;20183;-84
2023/08/25 06:52:59;;;;;;;98.00;72.87;;;20.50;99.90;;;;;;5020163;28;20256;-84
2023/08/25 06:55:25;;;;;;;94.87;64.27;;;20.50;99.90;;;;;;5038115;28;20157;-84
2023/08/25 06:57:51;;;;;;;95.27;65.00;;;20.50;99.90;;;;;;5019964;28;20448;-85
2023/08/25 07:00:20;;;;;;;95.83;69.70;;;20.40;99.90;;;;;;5037393;28;20423;-85
2023/08/25 07:02:46;;;;;;;99.03;67.93;;;20.40;99.90;;;;;;5037513;28;20411;-84
2023/08/25 07:05:12;;;;;;;101.77;77.10;;;20.50;99.90;;;;;;5037528;28;20489;-85
2023/08/25 07:07:38;;;;;;;96.47;73.20;;;20.60;99.90;;;;;;5019991;28;20196;-85
2023/08/25 07:10:04;;;;;;;92.27;60.67;;;20.70;99.90;;;;;;5039244;28;20428;-85
2023/08/25 07:12:30;;;;;;;91.57;58.13;;;20.50;99.90;;;;;;5038846;28;20164;-83
2023/08/25 07:14:56;;;;;;;117.20;104.50;;;20.50;99.90;;;;;;5020926;28;20437;-83
2023/08/25 07:17:22;;;;;;;100.60;64.43;;;20.30;99.90;;;;;;5037418;28;20414;-83
2023/08/25 07:19:48;;;;;;;102.03;63.93;;;20.20;99.90;;;;;;5036610;28;20196;-84
2023/08/25 07:22:15;;;;;;;96.33;63.43;;;20.10;99.90;;;;;;5018360;28;20185;-83
2023/08/25 07:24:40;;;;;;;99.50;60.40;;;20.00;99.90;;;;;;5035156;28;20412;-85
2023/08/25 07:27:10;;;;;;;94.07;45.03;;;20.10;99.90;;;;;;5036870;28;20971;-85
2023/08/25 07:29:36;;;;;;;98.00;45.33;;;20.10;99.90;;;;;;5035958;28;20251;-84
2023/08/25 07:32:03;;;;;;;96.80;44.00;;;20.10;99.90;;;;;;5034845;28;20410;-84
2023/08/25 07:34:28;;;;;;;98.40;43.50;;;20.20;99.90;;;;;;5034357;28;20401;-84
2023/08/25 07:36:54;;;;;;;91.37;52.37;;;20.40;99.90;;;;;;5035734;28;20393;-86
2023/08/25 07:39:20;;;;;;;93.17;54.73;;;20.50;99.90;;;;;;5035231;28;20564;-84
2023/08/25 07:41:45;;;;;;;95.07;52.43;;;20.60;99.90;;;;;;5017278;28;20580;-85
2023/08/25 07:44:11;;;;;;;96.40;56.37;;;20.80;99.90;;;;;;5035054;28;20169;-85
2023/08/25 07:46:38;;;;;;;96.37;59.47;;;20.90;99.90;;;;;;5035031;28;20207;-86
2023/08/25 07:49:07;;;;;;;105.00;69.77;;;21.00;99.90;;;;;;5016954;28;20284;-84
2023/08/25 07:51:32;;;;;;;95.63;67.97;;;21.00;99.90;;;;;;5018221;28;20421;-85
2023/08/25 07:53:58;;;;;;;98.60;71.03;;;21.00;99.90;;;;;;5035223;28;20404;-86
2023/08/25 07:56:24;;;;;;;97.07;69.03;;;21.00;99.90;;;;;;5035623;28;20154;-84
2023/08/25 07:58:53;;;;;;;101.27;72.57;;;21.10;99.90;;;;;;5018401;28;20181;-86
2023/08/25 08:01:19;;;;;;;97.50;68.90;;;21.10;99.90;;;;;;5017936;28;20196;-86
2023/08/25 08:03:45;;;;;;;106.07;73.00;;;21.10;99.90;;;;;;5017733;28;20416;-86
2023/08/25 08:06:11;;;;;;;98.70;68.93;;;21.10;99.90;;;;;;5035760;28;20498;-86
2023/08/25 08:08:37;;;;;;;101.20;64.77;;;21.10;99.90;;;;;;5036465;28;20527;-86
2023/08/25 08:11:02;;;;;;;102.90;63.80;;;21.10;99.90;;;;;;5039204;28;20200;-86
2023/08/25 08:13:28;;;;;;;96.33;65.70;;;21.00;99.90;;;;;;5040038;28;20407;-86
2023/08/25 08:15:54;;;;;;;96.97;62.53;;;21.00;99.90;;;;;;5039668;28;20184;-86
2023/08/25 08:18:20;;;;;;;92.17;57.50;;;20.90;99.90;;;;;;5040119;28;20491;-86
2023/08/25 08:20:45;;;;;;;90.80;54.13;;;20.80;99.90;;;;;;5039163;28;20191;-86
2023/08/25 08:23:11;;;;;;;92.83;56.20;;;20.80;99.90;;;;;;5021631;28;20223;-86
2023/08/25 08:25:37;;;;;;;91.47;54.97;;;20.70;99.90;;;;;;5038987;28;20168;-86
2023/08/25 08:28:02;;;;;;;90.77;55.13;;;20.70;99.90;;;;;;5021598;28;20732;-86
2023/08/25 08:30:28;;;;;;;91.67;58.10;;;20.60;99.90;;;;;;5039454;28;20193;-86
2023/08/25 08:32:57;;;;;;;93.70;62.17;;;20.60;99.90;;;;;;5039074;28;20403;-85
2023/08/25 08:35:23;;;;;;;95.80;61.30;;;20.60;99.90;;;;;;5022629;28;20545;-84
2023/08/25 08:38:08;;;;;;;93.90;60.17;;;20.60;99.90;;;;;;5040050;28;20412;-84
2023/08/25 08:40:50;;;;;;;;;;;;;;;;;;;;;
2023/08/25 08:43:49;;;;;;;93.77;63.83;;;20.70;99.90;;;;;;5039939;28;20490;-85
2023/08/25 08:46:28;;;;;;;93.80;61.53;;;20.60;99.90;;;;;;5039916;28;20477;-85
2023/08/25 08:49:05;;;;;;;94.17;57.30;;;20.60;99.90;;;;;;5039327;28;20837;-84
2023/08/25 08:51:47;;;;;;;95.53;57.20;;;20.60;99.90;;;;;;5039620;28;20871;-84
2023/08/25 08:54:13;;;;;;;98.10;59.33;;;20.60;99.90;;;;;;5039380;28;20743;-85
2023/08/25 08:56:46;;;;;;;97.40;49.97;;;20.60;99.90;;;;;;5039376;28;20484;-86
2023/08/25 08:59:47;;;;;;;95.47;50.07;;;20.60;99.90;;;;;;5022249;28;20436;-85
2023/08/25 09:02:14;;;;;;;99.67;68.13;;;20.80;99.90;;;;;;4986898;28;20823;-86
2023/08/25 09:04:41;;;;;;;98.27;64.83;;;21.00;99.90;;;;;;5039669;28;20405;-86
2023/08/25 09:07:07;;;;;;;98.23;67.87;;;21.30;99.90;;;;;;5022692;28;20434;-86
2023/08/25 09:09:33;;;;;;;97.17;60.30;;;21.50;99.90;;;;;;5022460;28;20456;-86
2023/08/25 09:11:59;;;;;;;103.97;71.43;;;21.60;99.90;;;;;;5040884;28;20403;-87
2023/08/25 09:14:29;;;;;;;99.77;70.23;;;21.60;99.90;;;;;;5040627;28;20170;-86
2023/08/25 09:16:56;;;;;;;101.83;82.33;;;21.80;99.90;;;;;;5022280;28;20488;-86
2023/08/25 09:19:23;;;;;;;103.13;72.67;;;21.90;99.90;;;;;;5039670;28;20493;-86
2023/08/25 09:21:49;;;;;;;103.80;85.67;;;22.00;99.90;;;;;;5021915;28;20431;-86
2023/08/25 09:24:20;;;;;;;123.10;110.50;;;22.00;99.90;;;;;;5021952;28;20420;-86
2023/08/25 09:26:46;;;;;;;130.67;116.97;;;22.10;99.90;;;;;;5040618;28;20408;-85
2023/08/25 09:29:12;;;;;;;140.83;127.80;;;22.30;99.90;;;;;;5039473;28;20538;-86
2023/08/25 09:31:38;;;;;;;131.27;118.27;;;22.10;99.90;;;;;;5022201;28;20431;-85
2023/08/25 09:34:08;;;;;;;120.37;107.67;;;22.10;99.90;;;;;;5021238;28;20403;-86
2023/08/25 09:36:57;;;;;;;121.37;108.87;;;22.00;99.90;;;;;;5040313;28;20149;-85
2023/08/25 09:39:24;;;;;;;129.70;116.60;;;21.90;99.90;;;;;;5039558;28;20416;-85
2023/08/25 09:41:50;;;;;;;132.00;119.13;;;21.90;99.90;;;;;;5038444;28;20514;-85
2023/08/25 09:44:53;;;;;;;137.00;123.87;;;21.90;99.90;;;;;;5038173;28;20435;-85
2023/08/25 09:47:21;;;;;;;140.23;126.93;;;22.00;99.90;;;;;;5037485;28;20173;-84
2023/08/25 09:49:55;;;;;;;128.23;115.53;;;22.10;99.90;;;;;;5037945;28;20475;-85
2023/08/25 09:52:41;;;;;;;143.60;130.10;;;22.10;99.90;;;;;;5038015;28;20403;-85
2023/08/25 09:55:14;;;;;;;138.97;125.57;;;22.10;99.90;;;;;;5039051;28;20400;-85
2023/08/25 09:58:08;;;;;;;;;;;;;;;;;;;;;
2023/08/25 10:00:38;;;;;;;128.50;115.50;;;22.00;99.90;;;;;;5038626;28;20508;-85
2023/08/25 10:03:06;;;;;;;136.57;123.27;;;22.00;99.90;;;;;;5021117;28;20830;-85
2023/08/25 10:05:48;;;;;;;136.23;122.73;;;21.90;99.90;;;;;;5038635;28;20851;-85
2023/08/25 10:08:14;;;;;;;133.97;120.63;;;22.00;99.90;;;;;;5039543;28;20436;-84
2023/08/25 10:10:45;;;;;;;115.37;100.37;;;22.10;99.90;;;;;;5038726;28;20455;-84
2023/08/25 10:13:46;;;;;;;136.30;122.77;;;22.30;99.90;;;;;;5038036;28;20396;-85
2023/08/25 10:16:12;;;;;;;138.83;125.40;;;22.30;99.90;;;;;;5051415;22;20562;-80
2023/08/25 10:18:43;;;;;;;149.33;135.40;;;22.40;99.90;;;;;;5037738;28;20400;-80
2023/08/25 10:21:12;;;;;;;131.80;118.90;;;22.30;99.90;;;;;;5037791;28;20420;-80
2023/08/25 10:23:39;;;;;;;127.73;114.90;;;22.10;99.90;;;;;;5037781;28;20396;-81
2023/08/25 10:26:05;;;;;;;134.43;121.33;;;22.10;99.90;;;;;;5037944;28;20768;-80
2023/08/25 10:28:35;;;;;;;131.43;118.43;;;22.00;99.90;;;;;;5020644;28;20451;-80
2023/08/25 10:31:01;;;;;;;135.00;121.53;;;21.80;99.90;;;;;;5037727;28;20427;-81
2023/08/25 10:33:27;;;;;;;130.17;116.97;;;21.70;99.90;;;;;;5038428;28;20400;-81
2023/08/25 10:35:56;;;;;;;138.27;124.90;;;21.70;99.90;;;;;;5020328;28;20411;-81
2023/08/25 10:38:34;;;;;;;131.33;118.13;;;21.70;99.90;;;;;;5037835;28;20412;-81
2023/08/25 10:41:11;;;;;;;136.93;123.53;;;21.70;99.90;;;;;;5020122;28;20440;-81
2023/08/25 10:43:37;;;;;;;138.90;125.07;;;21.60;99.90;;;;;;5038209;28;20450;-81
2023/08/25 10:46:07;;;;;;;116.70;104.07;;;21.50;99.90;;;;;;5037969;28;20411;-81
2023/08/25 10:48:34;;;;;;;118.73;106.10;;;21.40;99.90;;;;;;5038057;28;20197;-81
2023/08/25 10:51:10;;;;;;;128.60;115.50;;;21.40;99.90;;;;;;5037782;28;20459;-82
2023/08/25 10:53:41;;;;;;;126.27;113.17;;;21.50;99.90;;;;;;5020638;28;20408;-81
2023/08/25 10:56:22;;;;;;;123.77;110.83;;;21.60;99.90;;;;;;5019956;28;20410;-81
2023/08/25 10:59:11;;;;;;;128.40;115.03;;;21.50;99.90;;;;;;5020485;28;20494;-82
2023/08/25 11:01:37;;;;;;;112.80;100.50;;;21.50;99.90;;;;;;5020204;28;20419;-81
2023/08/25 11:04:23;;;;;;;116.80;102.53;;;21.40;99.90;;;;;;5038026;28;20411;-82
2023/08/25 11:06:58;;;;;;;110.63;94.47;;;21.40;99.90;;;;;;5037976;28;20228;-82
2023/08/25 11:09:24;;;;;;;112.43;87.50;;;21.30;99.90;;;;;;5019758;28;20447;-81
2023/08/25 11:12:08;;;;;;;109.27;89.70;;;21.30;99.90;;;;;;5037829;28;20387;-81
2023/08/25 11:14:39;;;;;;;108.13;84.40;;;21.30;99.90;;;;;;5037015;28;20153;-82
2023/08/25 11:17:09;;;;;;;107.80;94.47;;;21.30;99.90;;;;;;5038160;28;20803;-81
2023/08/25 11:19:37;;;;;;;111.10;98.70;;;21.40;99.90;;;;;;5002937;28;20458;-82
2023/08/25 11:22:05;;;;;;;112.90;94.23;;;21.40;99.90;;;;;;5037703;28;20548;-81
2023/08/25 11:24:32;;;;;;;114.20;101.93;;;21.40;99.90;;;;;;5019063;28;20418;-81
2023/08/25 11:27:11;;;;;;;110.60;98.30;;;21.30;99.90;;;;;;5037391;28;20850;-81
2023/08/25 11:29:44;;;;;;;121.43;108.83;;;21.30;99.90;;;;;;5037100;28;20448;-82
2023/08/25 11:32:14;;;;;;;128.07;115.33;;;21.30;99.90;;;;;;5037971;28;20381;-82
2023/08/25 11:34:40;;;;;;;123.07;110.37;;;21.30;99.90;;;;;;5037068;28;20439;-81
2023/08/25 11:37:06;;;;;;;115.83;103.37;;;21.30;99.90;;;;;;5019949;28;20412;-81
2023/08/25 11:39:32;;;;;;;125.13;112.23;;;21.20;99.90;;;;;;5019604;28;20425;-81
2023/08/25 11:41:58;;;;;;;134.80;121.47;;;21.20;99.90;;;;;;5036467;28;20404;-80
2023/08/25 11:44:24;;;;;;;178.03;162.07;;;21.20;99.90;;;;;;5038159;28;20164;-81
2023/08/25 11:46:54;;;;;;;177.77;161.57;;;21.20;99.90;;;;;;5022139;28;20416;-81
2023/08/25 11:49:20;;;;;;;121.63;108.90;;;21.30;99.90;;;;;;5040049;28;20447;-82
2023/08/25 11:51:52;;;;;;;168.70;153.40;;;21.30;99.90;;;;;;5041649;28;20434;-81
2023/08/25 11:54:18;;;;;;;112.00;98.23;;;21.40;99.90;;;;;;5041536;28;20813;-81
2023/08/25 11:56:51;;;;;;;114.33;101.73;;;21.50;99.90;;;;;;5041424;28;20407;-81
2023/08/25 11:59:20;;;;;;;121.20;108.60;;;21.80;99.90;;;;;;5040711;28;20182;-81
2023/08/25 12:01:50;;;;;;;123.63;111.13;;;22.10;99.90;;;;;;5039696;28;20403;-81
2023/08/25 12:04:25;;;;;;;121.77;108.90;;;22.30;99.90;;;;;;5040651;28;20932;-80
2023/08/25 12:06:54;;;;;;;133.70;120.43;;;22.30;99.90;;;;;;5040530;28;20407;-80
2023/08/25 12:09:24;;;;;;;129.87;116.67;;;22.50;99.90;;;;;;5021758;28;20455;-81
2023/08/25 12:11:53;;;;;;;142.83;128.73;;;22.40;99.90;;;;;;5041020;28;20927;-81
2023/08/25 12:14:38;;;;;;;138.33;124.23;;;22.50;99.90;;;;;;5040500;28;20839;-81
2023/08/25 12:17:04;;;;;;;134.87;121.27;;;22.40;99.90;;;;;;5041467;28;20898;-81
2023/08/25 12:19:29;;;;;;;133.20;119.03;;;22.20;99.90;;;;;;5021640;28;20427;-82
2023/08/25 12:21:57;;;;;;;133.00;119.60;;;22.20;99.90;;;;;;5039932;28;20595;-82
2023/08/25 12:24:23;;;;;;;139.30;125.50;;;22.10;99.90;;;;;;5041266;28;20215;-81